SPRM weather

Capitán FAP Leonardo Alvariño Herr Airport
San Ramón, Junín Region, Perú

Public forecast

Using degrees Celsius for public forecast. Weather courtesy of forecast.io.

METAR (pilot weather report)

Report is more than 6 hours old.

Closest report is Francisco Carle Airport, 40.0 nm (74.0 km) S. Retrieved 2019/04/21 21:24 UTC (1 day ago):

SPJJ 212124Z 04016G28KT 9999 SCT040TCU SCT070 17/07 Q1029

TAF (pilot weather forecast)

Forecast is more than 12 hours old.

Closest forecast is Alferez Fap David Figueroa Fernandini Airport, 90.4 nm (167.4 km) NW. Retrieved 2016/05/29 12:30 UTC (3 years ago):

TAF SPNC 291200Z 2912/3012 VRB02KT 9999 SCT027 SCT100 TX28/2919Z TN16/3011Z FM291500 06005KT 9999 SCT030 FM291900 07016KT 9999 SCT028 SCT100